OFP weather

Hanover County Municipal Airport
Richmond/Ashland, Virginia, United States

Public forecast

Using degrees Fahrenheit for public forecast. Weather courtesy of forecast.io.

METAR (pilot weather report)

Retrieved 2019/05/21 12:54 UTC (1 hour ago):

KOFP 211254Z AUTO 01007KT 330V070 8SM CLR 19/11 A3003 RMK AO2 SLP167 T01890111 TSNO

TAF (pilot weather forecast)

Closest forecast is Richmond International Airport, 13.4 nm (24.9 km) SSE. Retrieved 2019/05/21 12:22 UTC (2 hours ago):

TAF KRIC 211120Z 2112/2212 01011KT P6SM SKC FM211600 34008KT P6SM SKC FM212300 04003KT P6SM SKC